createdAt,value
2018-03-26T00:01:20.462Z,0.50
2018-03-26T00:03:47.998Z,0.40
2018-03-26T00:06:15.539Z,0.30
2018-03-26T00:08:43.265Z,0.40
2018-03-26T00:11:12.475Z,0.30
2018-03-26T00:13:40.025Z,0.30
2018-03-26T00:16:08.354Z,0.40
2018-03-26T00:18:36.957Z,0.30
2018-03-26T00:21:04.846Z,0.20
2018-03-26T00:23:32.388Z,0.30
2018-03-26T00:25:59.926Z,0.30
2018-03-26T00:28:28.424Z,0.30
2018-03-26T00:30:55.965Z,0.30
2018-03-26T00:33:23.518Z,0.30
2018-03-26T00:35:51.241Z,0.10
2018-03-26T00:38:19.552Z,0.10
2018-03-26T00:40:47.093Z,0.10
2018-03-26T00:43:15.017Z,0.00
2018-03-26T00:45:42.642Z,0.10
2018-03-26T00:48:10.181Z,0.10
2018-03-26T00:50:38.017Z,0.20
2018-03-26T00:53:05.554Z,0.20
2018-03-26T00:55:33.090Z,0.10
2018-03-26T00:58:00.816Z,0.10
2018-03-26T01:00:29.130Z,-0.20
2018-03-26T01:02:56.673Z,-0.20
2018-03-26T01:05:24.269Z,-0.20
2018-03-26T01:07:51.814Z,-0.20
2018-03-26T01:10:19.364Z,-0.10
2018-03-26T01:12:46.970Z,0.00
2018-03-26T01:15:14.517Z,0.00
2018-03-26T01:17:42.060Z,-0.10
2018-03-26T01:20:09.743Z,0.00
2018-03-26T01:22:37.289Z,-0.10
2018-03-26T01:25:04.827Z,0.00
2018-03-26T01:27:32.426Z,-0.10
2018-03-26T01:29:59.964Z,0.00
2018-03-26T01:32:27.509Z,-0.10
2018-03-26T01:34:55.073Z,0.00
2018-03-26T01:37:22.954Z,-0.10
2018-03-26T01:39:50.497Z,0.00
2018-03-26T01:42:18.109Z,-0.20
2018-03-26T01:44:46.429Z,-0.20
2018-03-26T01:47:13.973Z,-0.30
2018-03-26T01:49:41.757Z,-0.30
2018-03-26T01:52:09.312Z,-0.30
2018-03-26T01:54:36.857Z,-0.30
2018-03-26T01:57:04.656Z,-0.30
2018-03-26T01:59:32.212Z,-0.50
2018-03-26T02:01:59.758Z,-0.50
2018-03-26T02:04:27.358Z,-0.40
2018-03-26T02:06:54.906Z,-0.40
2018-03-26T02:09:22.449Z,-0.40
2018-03-26T02:11:50.227Z,-0.40
2018-03-26T02:14:17.775Z,-0.30
2018-03-26T02:16:45.326Z,-0.30
2018-03-26T02:19:13.224Z,-0.40
2018-03-26T02:21:40.776Z,-0.40
2018-03-26T02:24:08.550Z,-0.30
2018-03-26T02:26:36.629Z,-0.30
2018-03-26T02:29:04.159Z,-0.40
2018-03-26T02:31:31.722Z,-0.40
2018-03-26T02:33:59.597Z,-0.50
2018-03-26T02:36:27.149Z,-0.50
2018-03-26T02:38:54.698Z,-0.60
2018-03-26T02:41:22.582Z,-0.50
2018-03-26T02:43:50.137Z,-0.60
2018-03-26T02:46:17.681Z,-0.60
2018-03-26T02:48:45.437Z,-0.50
2018-03-26T02:51:12.981Z,-0.50
2018-03-26T02:53:40.529Z,-0.60
2018-03-26T02:56:08.125Z,-0.50
2018-03-26T02:58:35.672Z,-0.50
2018-03-26T03:01:03.215Z,-0.60
2018-03-26T03:03:30.935Z,-0.80
2018-03-26T03:05:58.482Z,-0.90
2018-03-26T03:08:26.030Z,-0.80
2018-03-26T03:10:55.143Z,-0.70
2018-03-26T03:13:22.693Z,-0.90
2018-03-26T03:15:50.254Z,-1.00
2018-03-26T03:18:17.846Z,-1.00
2018-03-26T03:20:45.392Z,-1.00
2018-03-26T03:23:13.210Z,-1.00
2018-03-26T03:25:40.812Z,-1.00
2018-03-26T03:28:08.364Z,-1.00
2018-03-26T03:30:36.224Z,-1.00
2018-03-26T03:33:03.780Z,-1.20
2018-03-26T03:35:31.337Z,-1.20
2018-03-26T03:37:59.210Z,-1.30
2018-03-26T03:40:26.758Z,-1.30
2018-03-26T03:42:54.299Z,-1.30
2018-03-26T03:45:21.873Z,-1.40
2018-03-26T03:47:49.414Z,-1.50
2018-03-26T03:50:16.974Z,-1.50
2018-03-26T03:52:44.794Z,-1.50
2018-03-26T03:55:12.343Z,-1.60
2018-03-26T03:57:40.657Z,-1.70
2018-03-26T04:00:08.657Z,-1.70
2018-03-26T04:02:36.208Z,-1.50
2018-03-26T04:05:03.753Z,-1.50
2018-03-26T04:07:31.556Z,-1.50
2018-03-26T04:09:59.425Z,-1.60
2018-03-26T04:12:26.966Z,-1.70
2018-03-26T04:14:54.519Z,-1.60
2018-03-26T04:17:22.112Z,-1.70
2018-03-26T04:19:49.674Z,-1.60
2018-03-26T04:22:17.643Z,-1.60
2018-03-26T04:24:45.597Z,-1.70
2018-03-26T04:27:13.137Z,-1.70
2018-03-26T04:29:40.685Z,-2.00
2018-03-26T04:32:08.640Z,-2.00
2018-03-26T04:34:36.929Z,-2.10
2018-03-26T04:37:04.478Z,-2.10
2018-03-26T04:39:32.114Z,-2.20
2018-03-26T04:41:59.726Z,-2.20
2018-03-26T04:44:27.282Z,-2.10
2018-03-26T04:46:54.832Z,-2.00
2018-03-26T04:49:22.723Z,-2.10
2018-03-26T04:51:50.269Z,-2.20
2018-03-26T04:54:17.828Z,-2.10
2018-03-26T04:56:45.613Z,-2.30
2018-03-26T04:59:13.169Z,-2.10
2018-03-26T05:01:40.712Z,-2.00
2018-03-26T05:04:08.605Z,-2.00
2018-03-26T05:06:36.149Z,-2.10
2018-03-26T05:09:03.885Z,-2.00
2018-03-26T05:11:31.526Z,-2.00
2018-03-26T05:13:59.080Z,-1.80
2018-03-26T05:16:27.418Z,-1.80
2018-03-26T05:18:54.974Z,-1.80
2018-03-26T05:21:22.733Z,-1.60
2018-03-26T05:23:50.280Z,-1.60
2018-03-26T05:26:17.835Z,-1.70
2018-03-26T05:28:45.689Z,-1.60
2018-03-26T05:31:13.235Z,-1.70
2018-03-26T05:33:40.802Z,-1.60
2018-03-26T05:36:09.455Z,-1.50
2018-03-26T05:38:36.997Z,-1.50
2018-03-26T05:41:04.548Z,-1.50
2018-03-26T05:43:32.464Z,-1.60
2018-03-26T05:46:00.010Z,-1.60
2018-03-26T05:48:28.326Z,-1.80
2018-03-26T05:50:55.934Z,-1.80
2018-03-26T05:53:23.481Z,-1.80
2018-03-26T05:55:51.027Z,-2.00
2018-03-26T05:58:18.718Z,-2.00
2018-03-26T06:00:46.261Z,-1.90
2018-03-26T06:03:13.990Z,-1.70
2018-03-26T06:05:41.777Z,-1.50
2018-03-26T06:08:09.329Z,-1.60
2018-03-26T06:10:36.877Z,-1.40
2018-03-26T06:13:04.490Z,-1.30
2018-03-26T06:15:32.834Z,-1.40
2018-03-26T06:18:00.395Z,-1.40
2018-03-26T06:20:28.365Z,-1.30
2018-03-26T06:22:55.909Z,-1.10
2018-03-26T06:25:23.464Z,-1.10
2018-03-26T06:27:51.058Z,-1.10
2018-03-26T06:30:18.610Z,-1.20
2018-03-26T06:32:46.160Z,-1.30
2018-03-26T06:35:13.834Z,-1.20
2018-03-26T06:37:45.962Z,-1.20
2018-03-26T06:40:13.506Z,-1.10
2018-03-26T06:42:41.225Z,-1.20
2018-03-26T06:45:08.771Z,-1.10
2018-03-26T06:47:36.325Z,-1.00
2018-03-26T06:50:04.205Z,-1.00
2018-03-26T06:52:31.753Z,-1.10
2018-03-26T06:54:59.304Z,-1.00
2018-03-26T06:57:26.870Z,-1.00
2018-03-26T06:59:54.418Z,-0.70
2018-03-26T07:02:21.985Z,-0.70
2018-03-26T07:04:49.763Z,-0.80
2018-03-26T07:07:17.316Z,-0.70
2018-03-26T07:09:44.866Z,-0.70
2018-03-26T07:12:12.436Z,-0.60
2018-03-26T07:14:39.978Z,-0.70
2018-03-26T07:17:07.643Z,-0.50
2018-03-26T07:19:35.242Z,-0.70
2018-03-26T07:22:02.791Z,-0.70
2018-03-26T07:24:30.336Z,-0.50
2018-03-26T07:26:57.945Z,-0.70
2018-03-26T07:29:26.396Z,-0.50
2018-03-26T07:31:53.959Z,-0.50
2018-03-26T07:34:21.509Z,-0.30
2018-03-26T07:36:49.077Z,-0.40
2018-03-26T07:39:16.678Z,-0.10
2018-03-26T07:41:44.217Z,0.00
2018-03-26T07:44:11.756Z,0.00
2018-03-26T07:46:39.341Z,0.00
2018-03-26T07:49:06.913Z,0.00
2018-03-26T07:51:34.460Z,0.20
2018-03-26T07:54:03.111Z,-0.20
2018-03-26T07:56:30.666Z,-0.20
2018-03-26T07:58:58.290Z,-0.20
2018-03-26T08:01:25.964Z,-0.20
2018-03-26T08:03:53.517Z,-0.10
2018-03-26T08:06:21.056Z,0.00
2018-03-26T08:08:48.772Z,0.30
2018-03-26T08:11:16.305Z,0.60
2018-03-26T08:13:43.846Z,0.70
2018-03-26T08:16:11.753Z,0.90
2018-03-26T08:18:39.297Z,0.90
2018-03-26T08:21:06.834Z,0.60
2018-03-26T08:23:34.508Z,0.70
2018-03-26T08:26:02.086Z,1.00
2018-03-26T08:28:29.641Z,1.10
2018-03-26T08:30:57.577Z,1.00
2018-03-26T08:33:25.121Z,1.10
2018-03-26T08:35:52.668Z,1.10
2018-03-26T08:38:21.008Z,0.90
2018-03-26T08:40:48.739Z,0.80
2018-03-26T08:43:16.278Z,1.00
2018-03-26T08:45:44.806Z,0.60
2018-03-26T08:48:12.352Z,0.60
2018-03-26T08:50:40.230Z,0.50
2018-03-26T08:53:08.117Z,0.60
2018-03-26T08:55:35.659Z,0.50
2018-03-26T08:58:03.225Z,0.30
2018-03-26T09:00:30.814Z,0.40
2018-03-26T09:02:58.364Z,0.80
2018-03-26T09:05:25.902Z,1.10
2018-03-26T09:07:54.089Z,1.40
2018-03-26T09:10:21.634Z,1.60
2018-03-26T09:12:49.183Z,1.80
2018-03-26T09:15:16.873Z,2.00
2018-03-26T09:17:44.423Z,2.40
2018-03-26T09:20:11.969Z,2.30
2018-03-26T09:22:39.646Z,2.00
2018-03-26T09:25:07.190Z,2.10
2018-03-26T09:27:34.739Z,2.00
2018-03-26T09:30:02.708Z,1.70
2018-03-26T09:32:30.254Z,2.10
2018-03-26T09:34:57.797Z,2.10
2018-03-26T09:37:25.397Z,2.20
2018-03-26T09:39:52.945Z,2.20
2018-03-26T09:42:20.486Z,2.30
2018-03-26T09:44:48.405Z,2.60
2018-03-26T09:47:15.958Z,2.80
2018-03-26T09:49:43.493Z,3.00
2018-03-26T09:52:11.392Z,3.10
2018-03-26T09:54:38.931Z,3.10
2018-03-26T09:57:06.474Z,2.70
2018-03-26T09:59:34.046Z,2.70
2018-03-26T10:02:01.617Z,2.60
2018-03-26T10:04:29.241Z,2.90
2018-03-26T10:06:56.947Z,3.40
2018-03-26T10:09:24.490Z,2.90
2018-03-26T10:11:52.030Z,3.40
2018-03-26T10:14:19.937Z,4.10
2018-03-26T10:16:47.482Z,3.80
2018-03-26T10:19:15.026Z,3.60
2018-03-26T10:21:42.757Z,3.50
2018-03-26T10:24:11.068Z,3.80
2018-03-26T10:26:38.615Z,3.70
2018-03-26T10:29:06.317Z,3.40
2018-03-26T10:31:33.863Z,3.30
2018-03-26T10:34:01.410Z,2.80
2018-03-26T10:36:29.243Z,2.50
2018-03-26T10:38:56.789Z,2.80
2018-03-26T10:41:25.095Z,3.40
2018-03-26T10:43:53.512Z,3.40
2018-03-26T10:46:21.050Z,3.60
2018-03-26T10:48:48.595Z,3.80
2018-03-26T10:51:16.272Z,4.00
2018-03-26T10:53:43.796Z,4.10
2018-03-26T10:56:12.092Z,4.40
2018-03-26T10:58:39.694Z,4.40
2018-03-26T11:01:07.224Z,4.30
2018-03-26T11:03:34.751Z,4.50
2018-03-26T11:06:02.455Z,4.80
2018-03-26T11:08:29.988Z,4.80
2018-03-26T11:10:57.518Z,4.80
2018-03-26T11:13:25.459Z,4.20
2018-03-26T11:15:52.986Z,4.00
2018-03-26T11:18:20.516Z,3.80
2018-03-26T11:20:48.370Z,4.20
2018-03-26T11:23:15.908Z,4.60
2018-03-26T11:25:43.435Z,5.10
2018-03-26T11:28:11.015Z,5.30
2018-03-26T11:30:38.548Z,5.30
2018-03-26T11:33:06.091Z,5.10
2018-03-26T11:35:33.701Z,5.20
2018-03-26T11:38:01.261Z,5.10
2018-03-26T11:40:29.566Z,5.20
2018-03-26T11:42:58.423Z,5.40
2018-03-26T11:45:25.961Z,5.40
2018-03-26T11:47:53.492Z,5.60
2018-03-26T11:50:21.069Z,6.30
2018-03-26T11:52:48.633Z,6.10
2018-03-26T11:55:16.277Z,6.40
2018-03-26T11:57:44.001Z,6.40
2018-03-26T12:00:11.664Z,6.60
2018-03-26T12:02:39.204Z,7.00
2018-03-26T12:05:06.736Z,7.00
2018-03-26T12:07:34.319Z,6.80
2018-03-26T12:10:01.840Z,7.30
2018-03-26T12:12:29.371Z,6.40
2018-03-26T12:14:57.710Z,6.30
2018-03-26T12:17:25.258Z,6.30
2018-03-26T12:20:04.709Z,6.10
2018-03-26T12:22:32.235Z,7.00
2018-03-26T12:25:04.539Z,7.10
2018-03-26T12:27:32.512Z,8.70
2018-03-26T12:30:22.100Z,10.00
2018-03-26T12:32:49.646Z,10.30
2018-03-26T12:35:29.495Z,11.70
2018-03-26T12:37:57.042Z,12.00
2018-03-26T12:40:37.544Z,11.90
2018-03-26T12:43:05.084Z,11.20
2018-03-26T12:45:44.512Z,11.30
2018-03-26T12:48:12.137Z,11.90
2018-03-26T12:50:52.321Z,12.60
2018-03-26T12:53:19.871Z,12.60
2018-03-26T12:55:47.412Z,13.90
2018-03-26T12:58:27.191Z,13.90
2018-03-26T13:01:06.552Z,15.00
2018-03-26T13:03:34.140Z,14.20
2018-03-26T13:06:01.676Z,13.80
2018-03-26T13:08:29.211Z,14.40
2018-03-26T13:10:56.975Z,14.00
2018-03-26T13:13:24.510Z,14.50
2018-03-26T13:15:52.040Z,15.00
2018-03-26T13:18:19.601Z,14.70
2018-03-26T13:20:47.895Z,14.60
2018-03-26T13:23:15.437Z,14.60
2018-03-26T13:25:43.172Z,15.00
2018-03-26T13:28:10.796Z,15.20
2018-03-26T13:30:38.356Z,14.60
2018-03-26T13:33:06.337Z,15.10
2018-03-26T13:35:33.884Z,15.60
2018-03-26T13:38:01.420Z,16.10
2018-03-26T13:40:29.124Z,15.60
2018-03-26T13:42:56.668Z,15.90
2018-03-26T13:45:24.204Z,17.10
2018-03-26T13:47:52.107Z,16.10
2018-03-26T13:50:19.723Z,16.80
2018-03-26T13:52:47.263Z,16.60
2018-03-26T13:55:15.823Z,16.30
2018-03-26T13:57:43.367Z,16.30
2018-03-26T14:00:10.924Z,15.80
2018-03-26T14:02:38.891Z,15.60
2018-03-26T14:05:06.433Z,15.20
2018-03-26T14:07:33.968Z,15.50
2018-03-26T14:10:13.679Z,14.60
2018-03-26T14:12:54.436Z,12.90
2018-03-26T14:15:34.275Z,13.00
2018-03-26T14:18:01.814Z,13.60
2018-03-26T14:20:29.352Z,15.30
2018-03-26T14:22:56.964Z,16.70
2018-03-26T14:25:24.496Z,17.10
2018-03-26T14:27:52.036Z,16.50
2018-03-26T14:30:19.836Z,17.10
2018-03-26T14:32:47.387Z,15.50
2018-03-26T14:35:47.923Z,16.10
2018-03-26T14:38:15.472Z,16.50
2018-03-26T14:40:43.064Z,15.00
2018-03-26T14:43:10.636Z,14.70
2018-03-26T14:45:38.255Z,16.90
2018-03-26T14:48:05.836Z,16.60
2018-03-26T14:50:33.382Z,15.90
2018-03-26T14:53:00.977Z,12.70
2018-03-26T14:55:29.394Z,13.60
2018-03-26T14:57:56.928Z,13.60
2018-03-26T15:00:25.567Z,14.20
2018-03-26T15:02:53.163Z,14.30
2018-03-26T15:05:20.679Z,15.50
2018-03-26T15:07:48.274Z,15.60
2018-03-26T15:10:16.571Z,14.20
2018-03-26T15:12:44.252Z,14.20
2018-03-26T15:15:12.158Z,13.40
2018-03-26T15:17:39.697Z,13.00
2018-03-26T15:20:07.236Z,11.40
2018-03-26T15:22:34.840Z,10.40
2018-03-26T15:25:02.383Z,8.90
2018-03-26T15:27:30.006Z,8.60
2018-03-26T15:29:57.919Z,8.10
2018-03-26T15:32:25.471Z,7.20
2018-03-26T15:34:53.004Z,6.70
2018-03-26T15:37:20.603Z,6.10
2018-03-26T15:39:48.138Z,5.90
2018-03-26T15:42:15.683Z,5.70
2018-03-26T15:44:43.493Z,5.10
2018-03-26T15:47:11.027Z,5.30
2018-03-26T15:49:38.564Z,4.90
2018-03-26T15:52:06.280Z,5.00
2018-03-26T15:54:33.809Z,4.70
2018-03-26T15:57:01.346Z,4.40
2018-03-26T15:59:29.248Z,4.40
2018-03-26T16:01:56.288Z,4.60
2018-03-26T16:04:23.827Z,4.30
2018-03-26T16:06:51.835Z,3.80
2018-03-26T16:09:19.407Z,3.80
2018-03-26T16:11:46.947Z,3.50
2018-03-26T16:14:14.489Z,3.10
2018-03-26T16:16:42.236Z,3.10
2018-03-26T16:19:09.769Z,3.00
2018-03-26T16:21:38.067Z,2.70
2018-03-26T16:24:06.077Z,2.60
2018-03-26T16:26:33.648Z,2.50
2018-03-26T16:29:01.180Z,2.60
2018-03-26T16:31:28.854Z,2.30
2018-03-26T16:33:56.408Z,2.10
2018-03-26T16:36:23.943Z,1.80
2018-03-26T16:38:51.851Z,1.80
2018-03-26T16:41:31.264Z,1.70
2018-03-26T16:43:59.022Z,1.80
2018-03-26T16:46:26.555Z,1.80
2018-03-26T16:48:54.849Z,1.20
2018-03-26T16:51:23.057Z,1.20
2018-03-26T16:53:50.580Z,1.30
2018-03-26T16:56:18.125Z,1.10
2018-03-26T16:58:45.745Z,0.90
2018-03-26T17:01:13.362Z,1.00
2018-03-26T17:03:40.942Z,0.80
2018-03-26T17:06:08.493Z,0.70
2018-03-26T17:08:36.279Z,0.70
2018-03-26T17:11:03.818Z,0.60
2018-03-26T17:13:31.559Z,0.60
2018-03-26T17:15:59.234Z,0.40
2018-03-26T17:18:26.780Z,0.20
2018-03-26T17:20:55.137Z,0.20
2018-03-26T17:23:23.432Z,0.00
2018-03-26T17:25:50.977Z,0.00
2018-03-26T17:28:19.416Z,0.00
2018-03-26T17:30:46.957Z,-0.10
2018-03-26T17:33:14.505Z,-0.10
2018-03-26T17:35:42.092Z,-0.30
2018-03-26T17:38:09.625Z,-0.40
2018-03-26T17:40:37.158Z,-0.50
2018-03-26T17:43:05.519Z,-0.60
2018-03-26T17:45:33.090Z,-0.60
2018-03-26T17:48:01.397Z,-0.80
2018-03-26T17:50:29.209Z,-0.80
2018-03-26T17:52:57.072Z,-0.80
2018-03-26T17:55:24.601Z,-0.70
2018-03-26T17:57:52.139Z,-1.00
2018-03-26T18:00:19.731Z,-0.90
2018-03-26T18:02:47.290Z,-1.00
2018-03-26T18:05:14.933Z,-1.10
2018-03-26T18:07:42.544Z,-1.10
2018-03-26T18:10:10.098Z,-1.20
2018-03-26T18:12:37.654Z,-1.10
2018-03-26T18:15:05.404Z,-1.30
2018-03-26T18:17:32.948Z,-1.40
2018-03-26T18:20:00.493Z,-1.50
2018-03-26T18:22:28.083Z,-1.50
2018-03-26T18:24:55.633Z,-1.50
2018-03-26T18:27:23.747Z,-1.50
2018-03-26T18:29:53.285Z,-1.60
2018-03-26T18:32:24.205Z,-1.70
2018-03-26T18:34:54.625Z,-1.60
2018-03-26T18:37:24.693Z,-1.60
2018-03-26T18:39:53.628Z,-1.60
2018-03-26T18:42:23.515Z,-1.50
2018-03-26T18:44:52.253Z,-1.50
2018-03-26T18:47:21.899Z,-1.70
2018-03-26T18:49:50.879Z,-1.70
2018-03-26T18:52:19.503Z,-1.70
2018-03-26T18:54:47.867Z,-1.80
2018-03-26T18:57:15.423Z,-1.70
2018-03-26T18:59:43.693Z,-1.80
2018-03-26T19:02:12.167Z,-2.00
2018-03-26T19:04:39.702Z,-2.00
2018-03-26T19:07:07.607Z,-2.10
2018-03-26T19:09:35.142Z,-2.10
2018-03-26T19:12:02.704Z,-2.20
2018-03-26T19:14:30.283Z,-2.30
2018-03-26T19:16:57.815Z,-2.30
2018-03-26T19:19:25.356Z,-2.40
2018-03-26T19:21:53.099Z,-2.40
2018-03-26T19:24:21.395Z,-2.50
2018-03-26T19:26:48.980Z,-2.50
2018-03-26T19:29:16.585Z,-2.60
2018-03-26T19:31:44.124Z,-2.70
2018-03-26T19:34:11.665Z,-2.80
2018-03-26T19:36:39.326Z,-2.80
2018-03-26T19:39:06.867Z,-2.80
2018-03-26T19:41:34.656Z,-2.90
2018-03-26T19:44:02.244Z,-3.00
2018-03-26T19:46:29.782Z,-3.00
2018-03-26T19:48:57.318Z,-3.10
2018-03-26T19:51:25.109Z,-3.10
2018-03-26T19:53:53.016Z,-3.10
2018-03-26T19:56:21.316Z,-3.30
2018-03-26T19:58:48.934Z,-3.30
2018-03-26T20:01:16.517Z,-3.30
2018-03-26T20:03:44.056Z,-3.40
2018-03-26T20:06:11.598Z,-3.50
2018-03-26T20:08:39.376Z,-3.50
2018-03-26T20:11:06.915Z,-3.60
2018-03-26T20:13:34.449Z,-3.60
2018-03-26T20:16:02.137Z,-3.70
2018-03-26T20:18:29.672Z,-3.70
2018-03-26T20:20:57.207Z,-3.80
2018-03-26T20:23:25.156Z,-3.80
2018-03-26T20:25:52.691Z,-3.90
2018-03-26T20:28:20.240Z,-3.90
2018-03-26T20:30:47.954Z,-4.00
2018-03-26T20:33:16.470Z,-4.00
2018-03-26T20:35:44.011Z,-4.00
2018-03-26T20:38:11.671Z,-4.10
2018-03-26T20:40:40.673Z,-4.20
2018-03-26T20:43:08.209Z,-4.20
2018-03-26T20:45:35.798Z,-4.20
2018-03-26T20:48:03.328Z,-4.20
2018-03-26T20:50:30.859Z,-4.30
2018-03-26T20:52:58.719Z,-4.30
2018-03-26T20:55:26.264Z,-4.40
2018-03-26T20:57:53.806Z,-4.50
2018-03-26T21:00:21.689Z,-4.50
2018-03-26T21:02:49.223Z,-4.50
2018-03-26T21:05:16.751Z,-4.50
2018-03-26T21:07:44.480Z,-4.50
2018-03-26T21:10:12.015Z,-4.60
2018-03-26T21:12:39.568Z,-4.60
2018-03-26T21:15:07.471Z,-4.70
2018-03-26T21:17:35.004Z,-4.70
2018-03-26T21:20:02.546Z,-4.70
2018-03-26T21:22:30.456Z,-4.70
2018-03-26T21:24:57.993Z,-4.70
2018-03-26T21:27:25.524Z,-4.70
2018-03-26T21:29:53.327Z,-4.90
2018-03-26T21:32:20.883Z,-4.90
2018-03-26T21:34:48.411Z,-4.90
2018-03-26T21:37:16.076Z,-5.00
2018-03-26T21:39:43.620Z,-5.10
2018-03-26T21:42:11.162Z,-5.00
2018-03-26T21:44:39.491Z,-5.20
2018-03-26T21:47:07.040Z,-5.20
2018-03-26T21:49:34.575Z,-5.20
2018-03-26T21:52:03.208Z,-5.30
2018-03-26T21:54:30.754Z,-5.30
2018-03-26T21:56:58.295Z,-5.30
2018-03-26T21:59:26.058Z,-5.40
2018-03-26T22:01:53.632Z,-5.40
2018-03-26T22:04:21.163Z,-5.40
2018-03-26T22:06:49.591Z,-5.50
2018-03-26T22:09:17.130Z,-5.50
2018-03-26T22:11:44.681Z,-5.60
2018-03-26T22:14:12.268Z,-5.70
2018-03-26T22:16:39.811Z,-5.70
2018-03-26T22:19:07.355Z,-5.70
2018-03-26T22:21:34.924Z,-5.80
2018-03-26T22:24:02.453Z,-5.90
2018-03-26T22:26:30.863Z,-5.90
2018-03-26T22:28:58.561Z,-5.90
2018-03-26T22:31:26.095Z,-5.90
2018-03-26T22:33:53.627Z,-6.00
2018-03-26T22:36:21.329Z,-6.10
2018-03-26T22:38:48.901Z,-6.10
2018-03-26T22:41:16.443Z,-6.20
2018-03-26T22:43:44.313Z,-6.20
2018-03-26T22:46:11.865Z,-6.20
2018-03-26T22:48:39.405Z,-6.20
2018-03-26T22:51:07.300Z,-6.20
2018-03-26T22:53:34.839Z,-6.30
2018-03-26T22:56:02.381Z,-6.40
2018-03-26T22:58:30.778Z,-6.30
2018-03-26T23:00:58.294Z,-6.30
2018-03-26T23:03:25.825Z,-6.20
2018-03-26T23:05:53.790Z,-6.40
2018-03-26T23:08:21.343Z,-6.50
2018-03-26T23:10:48.882Z,-6.50
2018-03-26T23:13:16.477Z,-6.50
2018-03-26T23:15:44.021Z,-6.50
2018-03-26T23:18:11.552Z,-6.60
2018-03-26T23:20:39.439Z,-6.60
2018-03-26T23:23:06.974Z,-6.50
2018-03-26T23:25:34.507Z,-6.60
2018-03-26T23:28:02.113Z,-6.50
2018-03-26T23:30:30.397Z,-6.70
2018-03-26T23:32:57.934Z,-6.70
2018-03-26T23:35:25.809Z,-6.70
2018-03-26T23:37:53.335Z,-6.70
2018-03-26T23:40:21.616Z,-6.90
2018-03-26T23:42:49.410Z,-6.90
2018-03-26T23:45:16.947Z,-6.90
2018-03-26T23:47:44.478Z,-6.90
2018-03-26T23:50:12.071Z,-6.90
2018-03-26T23:52:39.589Z,-6.90
2018-03-26T23:55:08.622Z,-6.80
2018-03-26T23:57:36.422Z,-6.80
